Presidente Prudente Airport
SBDN : rendu visible

Aérodrome :











RETROUVEZ-NOUS SUR...

 
LOGIN :

S'inscrire | Disclaimer

   EN    FR    IT 

 









Légende :    VFR   VFR Marginal   IFR   IFR Intensif   IFR Très Intensif
Visi : 
Plafond : 
>= 8 km
>= 3000ft
5 à 8 km
1000 à 3000 ft
1500m à 5 km
500 à 1000 ft
800 à 1500m
200 à 500 ft
< 800m
< 200 ft
Symboles :   Orages  Brouillard  Fortes neiges  Fortes précipitations  Vent > 20 kt






- Altitude de l'aérodrome : 1477 ft
- Code IATA : PPB


SBDN - Presidente Prudente

DERNIER METAR :
  • 090700Z 15003KT CAVOK 18/14 Q1015

METARs EXPIRÉS :
  • 090600Z 00000KT 9999 FEW045 18/15 Q1015
  • 090500Z 00000KT 9999 SCT045 SCT070 19/14 Q1015
  • 090400Z 00000KT CAVOK 19/15 Q1015

TAF TAF SBDN
Valide du 09 à 06h jusqu'au 09 à 18h UTC


090300Z 0906/0918 13008KT CAVOK TN17/0908Z TX31/0918Z RMK PEL



MET'MAP, la Météo Aéronautique d'un coup d'oeil ! - Copyright ORBIFLY Décembre 2007 - Disclaimer

ORBIFLY MET'MAP TEAM :

Programmation & Développement : Alexandra Zaïnal
Sur une idée originale de : Baudouin d'Aumeries
Assistance à la programmation : Marc-Olivier Méhu
Soutien technique & logistique : Manuel Goepfert

Contact : metmap@orbifly.com




SOURCES & CREDITS :

   NOAA       Earth
Advisory